KINL/INL METAR and TAF weather

Enter ICAO airport designator
Station Type Date Time Source
KINL METAR 2021/04/17 02:54 UTC NOAA

KINL 170254Z AUTO 01005KT 10SM FEW120 07/M05 A3008 RMK AO2 SLP198 T00671050 53006


Station Type Date Time Source
KINL Decoded METAR 2021/04/17 02:54 UTC NOAA

FALLS INTERNATIONAL AIRPORT , MN, United States (KINL) 48-34N 093-24W 360M
Apr 16, 2021 - 10:54 PM EDT / 2021.04.17 0254 UTC
Wind: from the N (010 degrees) at 6 MPH (5 KT):0
Visibility: 10 mile(s):0
Sky conditions: mostly clear
Temperature: 44.1 F (6.7 C)
Dew Point: 23.0 F (-5.0 C)
Relative Humidity: 42%
Pressure (altimeter): 30.08 in. Hg (1018 hPa)
Pressure tendency: 0.02 inches (0.6 hPa) higher than three hours ago
ob: KINL 170254Z AUTO 01005KT 10SM FEW120 07/M05 A3008 RMK AO2 SLP198 T00671050 53006
cycle: 3

Station Type Date Time Source
KINL TAF 2021/04/16 18:22 UTC NOAA

TAF KINL 161720Z 1618/1718 01008KT P6SM BKN070
FM171000 35003KT P6SM BKN100

Example: see airport list